Rome, NY

3:47 PM EST on November 26, 2014 (GMT -0500)
Teugega | Change Station
CLOSE
Current Station
Personal Weather Station
Location: Rome, NY
Elevation: 570 ft
Nearby Weather Stations
Active Advisory: Winter Weather Advisory Active Notice: Public Information Statement

Elev 570 ft 43.28 °N, 75.44 °W | Updated 307 days ago

Snow
Snow
34 °F
Feels Like 28 °F
N
7
Wind Variable Wind from North
Gusts 10 mph

Today
High -- | Low -- °F
--% Chance of Precip.
Yesterday
High -- | Low -- °F
Precip. -- in
7:08 AM 4:29 PM
Waxing Crescent, 22% visible
Pressure 30.08 in
Visibility 0.8 miles
Clouds
Windchill 28 °F
Dew Point 27 °F
Humidity 74%
Rainfall 0.00 in
Snow Depth Not available.
UV Not available.
Pollen .10 out of 12
Air Quality Not available.
Flu Activity Not available.
SPECI KRME 262041Z 32006KT 3/4SM -SN BR VV014 M01/M01 A3008 RMK AO2 P0002 T10061011 RVRNO

More Conditions Fewer Conditions

Pressure 30.08 in
Visibility 0.8 miles
Clouds
Windchill 28 °F
Dew Point 27 °F
Humidity 74%
Rainfall 0.00 in
Snow Depth Not available.
UV Not available.
Pollen .10 out of 12
Air Quality Not available.
Flu Activity Not available.
SPECI KRME 262041Z 32006KT 3/4SM -SN BR VV014 M01/M01 A3008 RMK AO2 P0002 T10061011 RVRNO

More Conditions Fewer Conditions

Nowcast | as of 2:49 PM EST on November 26, 2014

Snow will continue this afternoon. Expect an additional 1 to 2 inches of snowfall by 5 PM. Motorists should be alert to rapidly changing Road conditions this morning.

×

10-Day Weather Forecast

Almanac

Astronomy

Nov. 26, 2014 Rise Set
Actual Time
Civil Twilight
Nautical Twilight
Astronomical Twilight
Moon
Length of Visible Light
Length of Day
Tomorrow will be .
, % of the Moon is Illuminated

Today's Extremes

State Highs State Lows

Community

WunderPhotos

Upload Photos

1,773,860 photos uploaded!

WunderBlogs® & News

Nearby

Air Quality

  Air Quality AQ Index Pollutant
Not available.

Snow Depth

Station Depth Elevation

Earthquake Activity

City Distance Mag. Time & Date
Minimum magnitude displayed is 2.5.

Coastal Water Temperatures

Place Temperature

Nearby Weather Stations